Time;durP1;ratioP1;P1;durP2;ratioP2;P2;SDS_P1;SDS_P2;PMS_P1;PMS_P2;Temp;Humidity;BMP_temperature;BMP_pressure;BME280_temperature;BME280_humidity;BME280_pressure;Samples;Min_cycle;Max_cycle;Signal;HPM_P1;HPM_P2
2021/10/26 00:01:36;;;;;;;9.90;6.28;;;7.70;99.90;;;6.19;100.00;100820.19;4994469;28;20054;-80
2021/10/26 00:04:02;;;;;;;12.52;7.18;;;;;;;6.21;100.00;100822.78;4962824;28;20593;-79
2021/10/26 00:06:28;;;;;;;12.85;6.47;;;7.70;99.90;;;6.20;100.00;100824.53;5029544;28;20546;-80
2021/10/26 00:08:56;;;;;;;15.18;6.95;;;7.80;99.90;;;6.18;100.00;100810.66;5008750;28;20066;-80
2021/10/26 00:11:22;;;;;;;11.95;7.07;;;7.80;99.90;;;6.22;100.00;100812.28;5019820;28;20067;-80
2021/10/26 00:13:47;;;;;;;;;;;7.80;99.90;;;6.21;100.00;100804.47;5050025;28;20061;-80
2021/10/26 00:16:13;;;;;;;15.95;7.35;;;7.70;99.90;;;6.22;100.00;100808.78;5041927;28;20318;-80
2021/10/26 00:18:39;;;;;;;;;;;7.70;99.90;;;6.20;100.00;100810.59;5034610;28;20457;-79
2021/10/26 00:21:05;;;;;;;17.80;6.95;;;7.80;99.90;;;6.20;100.00;100808.84;5008018;28;20151;-80
2021/10/26 00:23:31;;;;;;;;;;;7.80;99.90;;;6.24;100.00;100812.22;5009311;28;20058;-80
2021/10/26 00:26:00;;;;;;;12.05;6.63;;;7.80;99.90;;;6.24;100.00;100818.34;4978444;28;19940;-80
2021/10/26 00:28:33;;;;;;;18.52;8.18;;;;;;;6.29;100.00;100818.22;4942351;28;20608;-80
2021/10/26 00:30:59;;;;;;;15.20;7.50;;;7.80;99.90;;;6.33;100.00;100818.06;5018710;28;20060;-80
2021/10/26 00:33:29;;;;;;;14.30;7.78;;;7.90;99.90;;;6.39;100.00;100818.78;5019448;28;20060;-80
2021/10/26 00:35:55;;;;;;;16.02;7.55;;;7.90;99.90;;;6.43;100.00;100808.19;5026758;28;20192;-80
2021/10/26 00:38:22;;;;;;;14.32;7.20;;;7.90;99.90;;;6.40;100.00;100812.69;4996793;28;20105;-80
2021/10/26 00:40:48;;;;;;;13.10;7.20;;;7.90;99.90;;;6.38;100.00;100809.25;4980984;28;20477;-80
2021/10/26 00:43:15;;;;;;;14.07;6.90;;;7.90;99.90;;;6.42;100.00;100818.72;5001880;28;20062;-80
2021/10/26 00:45:41;;;;;;;16.17;7.63;;;7.90;99.90;;;6.41;100.00;100799.53;5007295;28;20052;-80
2021/10/26 00:48:10;;;;;;;13.13;7.05;;;7.90;99.90;;;6.42;100.00;100795.19;5016147;28;20097;-80
2021/10/26 00:50:37;;;;;;;16.65;7.20;;;7.90;99.90;;;6.42;100.00;100792.56;5013688;28;20056;-80
2021/10/26 00:53:04;;;;;;;18.20;7.22;;;7.90;99.90;;;6.42;100.00;100792.56;5005171;28;20132;-80
2021/10/26 00:55:30;;;;;;;14.40;7.05;;;7.90;99.90;;;6.39;100.00;100796.09;5014891;28;20141;-80
2021/10/26 00:57:56;;;;;;;15.10;6.82;;;7.90;99.90;;;6.46;100.00;100797.66;5016669;28;20079;-79
2021/10/26 01:00:22;;;;;;;;;;;8.00;99.90;;;6.47;100.00;100795.91;5016890;28;20062;-79
2021/10/26 01:02:51;;;;;;;16.27;6.90;;;7.90;99.90;;;6.45;100.00;100789.84;5026726;28;19966;-80
2021/10/26 01:05:17;;;;;;;15.05;6.43;;;8.00;99.90;;;6.47;100.00;100804.59;5001269;28;20076;-80
2021/10/26 01:07:43;;;;;;;;;;;8.00;99.90;;;6.46;100.00;100791.59;5025798;28;20051;-80
2021/10/26 01:10:10;;;;;;;14.00;7.25;;;8.00;99.90;;;6.51;100.00;100797.53;5004336;28;19956;-80
2021/10/26 01:12:40;;;;;;;17.05;7.07;;;8.00;99.90;;;6.56;100.00;100801.72;5016175;28;20048;-80
2021/10/26 01:15:09;;;;;;;16.83;7.85;;;8.00;99.90;;;6.56;100.00;100806.94;5010198;28;20595;-80
2021/10/26 01:17:35;;;;;;;21.02;7.25;;;8.00;99.90;;;6.58;100.00;100799.06;4965136;28;20354;-79
2021/10/26 01:20:03;;;;;;;;;;;8.00;99.90;;;6.55;100.00;100788.69;4976435;28;20428;-80
2021/10/26 01:22:30;;;;;;;11.32;6.72;;;8.00;99.90;;;6.56;100.00;100795.63;5006000;28;19942;-79
2021/10/26 01:24:57;;;;;;;19.63;7.50;;;8.00;99.90;;;6.55;100.00;100783.47;5034087;28;20114;-80
2021/10/26 01:27:24;;;;;;;16.40;7.60;;;8.00;99.90;;;6.58;100.00;100786.84;5014472;28;20117;-80
2021/10/26 01:29:50;;;;;;;18.02;7.10;;;8.10;99.90;;;6.59;100.00;100777.25;5011033;28;21923;-80
2021/10/26 01:32:18;;;;;;;13.70;7.47;;;8.10;99.90;;;6.61;100.00;100780.69;5025727;28;20068;-79
2021/10/26 01:34:45;;;;;;;14.32;7.82;;;8.10;99.90;;;6.59;100.00;100774.63;5021577;28;20079;-80
2021/10/26 01:37:20;;;;;;;17.17;7.40;;;8.10;99.90;;;6.63;100.00;100772.75;5004995;28;20063;-80
2021/10/26 01:39:48;;;;;;;16.25;7.25;;;8.10;99.90;;;6.62;100.00;100763.22;4974449;28;20090;-80
2021/10/26 01:42:21;;;;;;;13.70;6.80;;;8.10;99.90;;;6.61;100.00;100762.38;4999172;28;20072;-80
2021/10/26 01:44:48;;;;;;;19.63;7.43;;;8.20;99.90;;;6.68;100.00;100776.13;4995471;28;20487;-80
2021/10/26 01:47:14;;;;;;;16.38;7.22;;;8.20;99.90;;;6.69;100.00;100768.19;4977430;28;20083;-80
2021/10/26 01:49:40;;;;;;;10.60;6.63;;;8.20;99.90;;;6.70;100.00;100775.16;5003075;28;20051;-80
2021/10/26 01:52:14;;;;;;;14.25;6.95;;;8.20;99.90;;;6.68;100.00;100769.13;4984742;28;20084;-80
2021/10/26 01:54:40;;;;;;;13.57;6.97;;;8.20;99.90;;;6.77;100.00;100773.22;5024638;28;20083;-80
2021/10/26 01:57:07;;;;;;;13.80;7.18;;;8.30;99.90;;;6.74;100.00;100783.78;5031460;28;20074;-79
2021/10/26 01:59:43;;;;;;;15.77;6.65;;;8.20;99.90;;;6.73;100.00;100790.75;5030037;28;20097;-80
2021/10/26 02:02:10;;;;;;;16.13;7.47;;;8.20;99.90;;;6.77;100.00;100791.53;4969840;28;20141;-80
2021/10/26 02:04:36;;;;;;;12.75;6.78;;;8.30;99.90;;;6.78;100.00;100786.28;5016339;28;20091;-80
2021/10/26 02:07:03;;;;;;;;;;;8.30;99.90;;;6.79;100.00;100787.13;4996350;28;20396;-80
2021/10/26 02:09:33;;;;;;;18.83;8.25;;;8.30;99.90;;;6.81;100.00;100792.31;4991644;28;20392;-80
2021/10/26 02:12:00;;;;;;;17.60;8.32;;;8.30;99.90;;;6.80;100.00;100793.19;5007312;28;20588;-80
2021/10/26 02:14:26;;;;;;;18.40;8.45;;;8.30;99.90;;;6.80;100.00;100790.59;4968041;28;20071;-80
2021/10/26 02:16:52;;;;;;;17.00;7.75;;;8.30;99.90;;;6.83;100.00;100791.38;4947107;28;20053;-80
2021/10/26 02:19:18;;;;;;;;;;;8.30;99.90;;;6.81;100.00;100779.22;4996998;28;20497;-80
2021/10/26 02:21:46;;;;;;;21.73;7.63;;;;;;;6.79;100.00;100776.66;4989108;28;19978;-80
2021/10/26 02:24:12;;;;;;;13.25;7.95;;;8.30;99.90;;;6.83;100.00;100772.19;5035456;28;20077;-80
2021/10/26 02:26:38;;;;;;;19.48;7.55;;;8.30;99.90;;;6.88;100.00;100765.88;5022702;28;20087;-80
2021/10/26 02:29:04;;;;;;;19.15;7.72;;;8.30;99.90;;;6.85;100.00;100752.06;5007337;28;20056;-79
2021/10/26 02:31:30;;;;;;;;;;;8.30;99.90;;;6.86;100.00;100751.16;5033501;28;20198;-80
2021/10/26 02:33:56;;;;;;;12.65;7.28;;;8.30;99.90;;;6.87;100.00;100753.72;4994221;28;20424;-80
2021/10/26 02:36:22;;;;;;;;;;;8.30;99.90;;;6.83;100.00;100744.25;5019041;28;20071;-80
2021/10/26 02:38:50;;;;;;;14.48;7.03;;;8.30;99.90;;;6.78;100.00;100746.13;4988502;28;20006;-80
2021/10/26 02:41:17;;;;;;;18.15;7.20;;;8.20;99.90;;;6.71;100.00;100740.22;5003473;28;20569;-80
2021/10/26 02:43:43;;;;;;;15.93;7.60;;;8.20;99.90;;;6.72;100.00;100743.72;5016481;28;20518;-80
2021/10/26 02:46:09;;;;;;;13.85;7.25;;;8.20;99.90;;;6.76;100.00;100748.81;5022466;28;20059;-80
2021/10/26 02:48:36;;;;;;;13.75;7.53;;;8.20;99.90;;;6.77;100.00;100763.59;4997105;28;20431;-79
2021/10/26 02:51:04;;;;;;;17.45;8.05;;;8.20;99.90;;;6.70;100.00;100745.53;5017299;28;20091;-80
2021/10/26 02:53:30;;;;;;;18.77;8.60;;;8.20;99.90;;;6.70;100.00;100751.63;5057129;28;20056;-80
2021/10/26 02:55:56;;;;;;;;;;;8.20;99.90;;;6.75;100.00;100749.69;5023063;28;20176;-80
2021/10/26 02:58:22;;;;;;;18.95;7.93;;;8.20;99.90;;;6.76;100.00;100746.19;5013006;28;19962;-80
2021/10/26 03:00:48;;;;;;;;;;;8.20;99.90;;;6.81;100.00;100756.53;5002242;28;20090;-80
2021/10/26 03:03:15;;;;;;;14.80;7.80;;;8.30;99.90;;;6.84;100.00;100756.41;5008712;28;19940;-80
2021/10/26 03:05:48;;;;;;;17.25;7.53;;;8.30;99.90;;;6.85;100.00;100752.91;5040604;28;20064;-80
2021/10/26 03:08:15;;;;;;;18.65;7.35;;;8.30;99.90;;;6.82;100.00;100746.91;5006768;28;20499;-79
2021/10/26 03:10:42;;;;;;;23.85;7.97;;;8.30;99.90;;;6.82;100.00;100752.13;4996477;28;20404;-80
2021/10/26 03:13:08;;;;;;;16.92;8.68;;;8.30;99.90;;;6.81;100.00;100801.03;5007292;28;20068;-80
2021/10/26 03:16:38;;;;;;;16.40;7.17;;;8.30;99.90;;;6.80;100.00;100848.16;5061932;27;21575;-80
2021/10/26 03:19:08;;;;;;;13.32;7.53;;;8.30;99.90;;;6.77;100.00;100838.66;5015533;28;20075;-80
2021/10/26 03:21:37;;;;;;;16.13;7.80;;;8.30;99.90;;;6.77;100.00;100883.13;5032811;28;20090;-80
2021/10/26 03:24:05;;;;;;;20.15;8.20;;;8.30;99.90;;;6.77;100.00;100883.13;5021418;28;20081;-80
2021/10/26 03:26:40;;;;;;;17.30;8.73;;;8.30;99.90;;;6.77;100.00;100932.88;5000651;28;20580;-80
2021/10/26 03:29:06;;;;;;;14.32;7.63;;;8.30;99.90;;;6.77;100.00;100946.81;4987211;28;20065;-81
2021/10/26 03:31:32;;;;;;;15.35;8.10;;;8.30;99.90;;;6.84;100.00;100978.91;5040808;28;20108;-80
2021/10/26 03:33:58;;;;;;;18.48;8.15;;;8.30;99.90;;;6.83;100.00;100994.66;5042999;28;20051;-80
2021/10/26 03:36:27;;;;;;;12.95;7.18;;;8.30;99.90;;;6.84;100.00;101015.53;5004188;28;20115;-80
2021/10/26 03:38:53;;;;;;;15.35;8.43;;;8.30;99.90;;;6.85;100.00;101004.19;5016313;28;20056;-80
2021/10/26 03:41:19;;;;;;;16.45;8.32;;;8.30;99.90;;;6.95;100.00;101055.41;5036502;28;20129;-80
2021/10/26 03:43:46;;;;;;;14.90;8.15;;;8.40;99.90;;;6.92;100.00;101059.84;5035320;28;20557;-80
2021/10/26 03:46:13;;;;;;;17.60;8.20;;;8.40;99.90;;;6.86;100.00;101060.88;5021477;28;20522;-80
2021/10/26 03:48:39;;;;;;;15.02;8.32;;;8.40;99.90;;;6.90;100.00;101103.53;5013680;28;20058;-81
2021/10/26 03:51:08;;;;;;;13.73;7.80;;;;;;;6.86;100.00;101128.06;4993519;28;20072;-80
2021/10/26 03:53:34;;;;;;;18.52;8.25;;;8.30;99.90;;;6.90;100.00;101134.94;5010203;28;20067;-81
2021/10/26 03:56:01;;;;;;;18.25;8.70;;;8.40;99.90;;;6.87;100.00;101172.53;5003798;28;20067;-81
2021/10/26 03:58:27;;;;;;;17.58;8.25;;;8.30;99.90;;;6.88;100.00;101160.31;5003173;28;20563;-82
2021/10/26 04:01:00;;;;;;;15.85;9.60;;;8.30;99.90;;;6.88;100.00;101191.72;5002690;28;20080;-83
2021/10/26 04:03:26;;;;;;;19.30;8.60;;;;;;;6.86;100.00;101206.59;4956372;28;20460;-83
2021/10/26 04:06:08;;;;;;;18.90;9.02;;;8.30;99.90;;;6.87;100.00;101235.38;5029631;28;20860;-83
2021/10/26 04:11:11;;;;;;;18.08;8.95;;;8.30;99.90;;;6.87;100.00;101256.31;4980408;28;20720;-83
2021/10/26 04:13:37;;;;;;;;;;;8.30;99.90;;;6.80;100.00;101253.84;4988495;28;20083;-84
2021/10/26 04:16:03;;;;;;;23.92;8.82;;;8.30;99.90;;;6.80;100.00;101335.00;4960801;28;20486;-83
2021/10/26 04:18:39;;;;;;;19.20;9.68;;;8.30;99.90;;;6.75;100.00;101356.88;5014920;28;20146;-83
2021/10/26 04:21:06;;;;;;;17.73;9.63;;;;;;;6.76;100.00;101373.47;4964959;28;20064;-83
2021/10/26 04:23:40;;;;;;;18.85;10.07;;;8.20;99.90;;;6.73;100.00;101387.47;5010471;28;20072;-83
2021/10/26 04:26:07;;;;;;;17.42;9.73;;;8.20;99.90;;;6.81;100.00;101404.78;4964713;28;20096;-83
2021/10/26 04:28:35;;;;;;;26.42;10.60;;;8.20;99.90;;;6.75;100.00;101419.72;4982952;28;20086;-83
2021/10/26 04:31:02;;;;;;;22.25;10.68;;;8.20;99.90;;;6.79;100.00;101457.16;4968442;28;20666;-83
2021/10/26 04:33:29;;;;;;;25.05;10.85;;;8.20;99.90;;;6.76;100.00;101447.63;4939582;28;20058;-83
2021/10/26 04:35:58;;;;;;;30.63;11.40;;;;;;;6.84;100.00;101468.41;4971468;28;20550;-83
2021/10/26 04:38:24;;;;;;;23.58;12.13;;;8.30;99.90;;;6.82;100.00;101519.91;4984840;28;20549;-82
2021/10/26 04:40:57;;;;;;;;;;;8.30;99.90;;;6.85;100.00;101506.78;4944119;28;20667;-83
2021/10/26 04:43:29;;;;;;;32.97;12.85;;;;;;;6.80;100.00;101542.63;4958510;28;20329;-83
2021/10/26 04:45:55;;;;;;;30.45;14.35;;;8.30;99.90;;;6.85;100.00;101483.22;4949708;28;20096;-83
2021/10/26 04:48:31;;;;;;;;;;;8.30;99.90;;;6.81;100.00;101512.97;4971791;28;20086;-83
2021/10/26 04:50:57;;;;;;;22.95;10.30;;;8.30;99.90;;;6.82;100.00;101560.94;4948611;28;19946;-83
2021/10/26 04:53:23;;;;;;;19.48;10.65;;;8.30;99.90;;;6.77;100.00;101561.88;4923303;28;20098;-83
2021/10/26 04:56:49;;;;;;;22.60;12.23;;;;;;;6.79;100.00;101582.81;4960223;27;25224;-84
2021/10/26 04:59:15;;;;;;;26.25;12.18;;;8.30;99.90;;;6.89;100.00;101599.22;4984854;28;20072;-83
2021/10/26 05:01:52;;;;;;;33.55;13.38;;;8.30;99.90;;;6.87;100.00;101658.59;4970676;28;20056;-83
2021/10/26 05:04:18;;;;;;;28.73;12.20;;;8.40;99.90;;;6.90;100.00;101676.88;4971834;28;20068;-83
2021/10/26 05:06:44;;;;;;;27.80;14.57;;;8.40;99.90;;;6.89;100.00;101712.69;4948989;28;20096;-83
2021/10/26 05:09:18;;;;;;;;;;;8.30;99.90;;;6.92;100.00;101696.03;4926089;28;20065;-83
2021/10/26 05:11:44;;;;;;;40.63;16.42;;;8.40;99.90;;;6.99;100.00;101748.28;4904101;28;20465;-83
2021/10/26 05:14:11;;;;;;;32.70;15.75;;;9.80;99.90;;;7.01;100.00;101731.69;4934060;28;20068;-83
2021/10/26 05:16:47;;;;;;;34.90;15.45;;;8.50;99.90;;;7.07;100.00;101787.47;4956343;28;20076;-83
2021/10/26 05:19:14;;;;;;;36.03;16.13;;;8.50;99.90;;;7.07;100.00;101770.88;4933393;28;20413;-83
2021/10/26 05:21:45;;;;;;;32.58;14.98;;;8.50;99.90;;;7.03;100.00;101811.97;4948341;28;20067;-83
2021/10/26 05:24:15;;;;;;;30.73;15.43;;;8.50;99.90;;;7.02;100.00;101815.47;4910257;28;20128;-83
2021/10/26 05:26:41;;;;;;;37.88;14.80;;;8.50;99.90;;;7.06;100.00;101838.13;4995635;28;20061;-84
2021/10/26 05:29:13;;;;;;;31.55;14.60;;;8.50;99.90;;;7.08;100.00;101862.50;4998773;28;20606;-83
2021/10/26 05:31:42;;;;;;;28.33;13.23;;;8.50;99.90;;;7.05;100.00;101846.84;4967362;28;20060;-83
2021/10/26 05:34:11;;;;;;;35.92;15.10;;;;;;;7.10;100.00;101892.16;4961679;28;20089;-83
2021/10/26 05:37:07;;;;;;;36.08;15.50;;;8.50;99.90;;;7.09;100.00;101895.69;4970073;28;20069;-83
2021/10/26 05:39:43;;;;;;;34.70;16.15;;;8.50;99.90;;;7.08;100.00;101914.88;4966418;28;20069;-83
2021/10/26 05:42:10;;;;;;;33.65;15.65;;;8.60;99.90;;;7.10;100.00;101909.63;4929715;28;20546;-83
2021/10/26 05:44:36;;;;;;;35.35;16.38;;;8.50;99.90;;;7.08;100.00;101927.97;4933155;28;20557;-83
2021/10/26 05:47:10;;;;;;;35.75;16.10;;;;;;;7.06;100.00;101970.81;4944649;28;20085;-83
2021/10/26 05:49:36;;;;;;;38.40;16.23;;;;;;;7.07;100.00;101988.25;4979281;28;20542;-84
2021/10/26 05:52:03;;;;;;;42.75;16.00;;;;;;;7.11;100.00;101966.41;4936383;28;20114;-83
2021/10/26 05:54:40;;;;;;;38.20;16.50;;;8.60;99.90;;;7.14;100.00;102003.00;4954199;28;20083;-83
2021/10/26 05:57:06;;;;;;;37.20;16.30;;;8.60;99.90;;;7.17;100.00;101997.72;4934044;28;20064;-83
2021/10/26 05:59:38;;;;;;;38.33;16.10;;;8.70;99.90;;;7.23;100.00;102017.75;4971493;28;20055;-83
2021/10/26 06:02:07;;;;;;;44.50;16.92;;;8.70;99.90;;;7.27;100.00;102053.50;4977722;28;20095;-82
2021/10/26 06:04:33;;;;;;;38.20;17.55;;;8.70;99.90;;;7.29;100.00;102049.97;4994931;28;20074;-83
2021/10/26 06:06:59;;;;;;;;;;;8.80;99.90;;;7.38;100.00;102080.44;4968815;28;20067;-83
2021/10/26 06:09:28;;;;;;;42.72;17.05;;;;;;;7.38;100.00;102083.94;4967710;28;19951;-83
2021/10/26 06:11:59;;;;;;;36.72;16.45;;;;;;;7.45;100.00;102102.22;4908397;28;20100;-83
2021/10/26 06:14:27;;;;;;;44.15;18.90;;;8.90;99.90;;;7.50;100.00;102101.28;4951254;28;20083;-83
2021/10/26 06:16:54;;;;;;;52.20;19.40;;;9.00;99.90;;;7.56;100.00;102106.47;4953797;28;20063;-83
2021/10/26 06:19:22;;;;;;;43.13;19.17;;;9.00;99.90;;;7.66;100.00;102137.78;4961553;28;24195;-83
2021/10/26 06:21:51;;;;;;;44.80;19.38;;;;;;;7.68;100.00;102147.38;4936117;28;20059;-83
2021/10/26 06:24:17;;;;;;;57.60;20.05;;;9.10;99.90;;;7.75;100.00;102171.75;4929969;28;21207;-83
2021/10/26 06:26:43;;;;;;;46.35;20.13;;;9.20;99.90;;;7.77;100.00;102181.34;4922715;28;20078;-83
2021/10/26 06:29:18;;;;;;;47.00;19.67;;;9.20;99.90;;;7.83;100.00;102216.25;4960376;28;20141;-83
2021/10/26 06:31:44;;;;;;;48.80;19.63;;;9.30;99.90;;;7.84;100.00;102204.88;4949481;28;20131;-83
2021/10/26 06:34:09;;;;;;;;;;;9.30;99.90;;;7.89;100.00;102211.81;4959871;28;20048;-83
2021/10/26 06:36:36;;;;;;;44.47;19.10;;;9.30;99.90;;;7.91;100.00;102190.81;4955641;28;20334;-82
2021/10/26 06:39:05;;;;;;;55.97;20.52;;;9.40;99.90;;;7.95;100.00;102219.63;4925133;28;20177;-82
2021/10/26 06:41:32;;;;;;;47.53;20.00;;;9.40;99.90;;;7.97;100.00;102238.81;4940710;28;20033;-83
2021/10/26 06:44:02;;;;;;;55.75;19.90;;;9.40;99.90;;;7.97;100.00;102220.47;4942839;28;20069;-83
2021/10/26 06:46:28;;;;;;;50.83;21.75;;;9.40;99.90;;;8.04;100.00;102262.38;4927998;28;20064;-83
2021/10/26 06:48:54;;;;;;;47.58;19.67;;;9.40;99.90;;;8.04;100.00;102252.75;4947645;28;20310;-83
2021/10/26 06:51:26;;;;;;;49.13;20.30;;;9.50;99.90;;;8.11;100.00;102264.88;4890194;28;20065;-82
2021/10/26 06:53:52;;;;;;;50.65;20.75;;;9.60;99.90;;;8.11;100.00;102240.41;4895450;28;20101;-82
2021/10/26 06:56:18;;;;;;;49.90;20.02;;;9.50;99.90;;;8.15;100.00;102252.63;4927108;28;20163;-83
2021/10/26 06:58:44;;;;;;;;;;;9.60;99.90;;;8.17;100.00;102250.84;4901159;28;20448;-83
2021/10/26 07:01:16;;;;;;;48.05;19.17;;;9.60;99.90;;;8.21;100.00;102299.78;4901194;28;19945;-82
2021/10/26 07:03:42;;;;;;;49.63;20.20;;;9.60;99.90;;;8.19;100.00;102270.91;4978753;28;20057;-82
2021/10/26 07:06:09;;;;;;;53.95;20.90;;;9.60;99.90;;;8.24;100.00;102273.47;4934861;28;20068;-82
2021/10/26 07:08:37;;;;;;;52.88;20.20;;;9.60;99.90;;;8.23;100.00;102308.50;4967310;28;20070;-83
2021/10/26 07:11:12;;;;;;;46.80;20.42;;;9.60;99.90;;;8.27;100.00;102319.81;4927084;28;20078;-83
2021/10/26 07:13:38;;;;;;;47.25;19.92;;;9.60;99.90;;;8.26;100.00;102333.84;4928157;28;20133;-82
2021/10/26 07:16:12;;;;;;;51.13;19.25;;;9.70;99.90;;;8.24;100.00;102346.97;4927478;28;20064;-82
2021/10/26 07:18:38;;;;;;;52.15;20.48;;;9.70;99.90;;;8.23;100.00;102358.34;4945708;28;20154;-82
2021/10/26 07:21:05;;;;;;;48.33;20.15;;;;;;;8.28;100.00;102374.91;4977795;28;20074;-83
2021/10/26 07:23:31;;;;;;;48.97;19.65;;;9.60;99.90;;;8.24;100.00;102346.97;4953571;28;20153;-83
2021/10/26 07:26:06;;;;;;;46.03;20.63;;;;;;;8.26;100.00;102399.44;4912317;28;20057;-82
2021/10/26 07:28:32;;;;;;;49.75;20.75;;;9.70;99.90;;;8.36;100.00;102391.44;4934946;28;20535;-82
2021/10/26 07:30:58;;;;;;;53.60;19.73;;;9.70;99.90;;;8.35;100.00;102426.44;4942199;28;20111;-82
2021/10/26 07:33:31;;;;;;;46.97;20.63;;;9.70;99.90;;;8.32;100.00;102407.25;4950704;28;20516;-82
2021/10/26 07:35:58;;;;;;;52.63;21.75;;;;;;;8.39;100.00;102433.41;4945702;28;20075;-82
2021/10/26 07:38:33;;;;;;;53.22;21.67;;;9.80;99.90;;;8.40;100.00;102432.56;4915479;28;20157;-83
2021/10/26 07:41:02;;;;;;;55.13;21.88;;;9.70;99.90;;;8.39;100.00;102466.66;4930885;28;20077;-83
2021/10/26 07:43:30;;;;;;;55.08;20.98;;;9.80;99.90;;;8.43;100.00;102457.06;4919319;28;20087;-83
2021/10/26 07:46:02;;;;;;;54.40;21.23;;;9.80;99.90;;;8.48;100.00;102421.97;4972058;28;20053;-82
2021/10/26 07:48:29;;;;;;;56.47;21.55;;;;;;;8.48;100.00;102428.97;4957515;28;20064;-83
2021/10/26 07:50:59;;;;;;;52.28;21.40;;;9.90;99.90;;;8.51;100.00;102449.94;4958188;28;20075;-83
2021/10/26 07:53:27;;;;;;;60.25;22.25;;;9.90;99.90;;;8.56;100.00;102500.66;4948993;28;20068;-83
2021/10/26 07:55:57;;;;;;;54.60;21.83;;;9.90;99.90;;;8.55;100.00;102460.44;4943437;28;20496;-83
2021/10/26 07:58:25;;;;;;;62.53;21.35;;;8.90;99.90;;;8.55;100.00;102491.94;4928300;28;20639;-82
2021/10/26 08:01:02;;;;;;;63.38;21.52;;;9.90;99.90;;;8.55;100.00;102489.31;4926730;28;20119;-83
2021/10/26 08:03:28;;;;;;;62.13;22.80;;;9.90;99.90;;;8.58;100.00;102357.97;4953638;28;20076;-82
2021/10/26 08:05:54;;;;;;;50.45;21.92;;;10.00;99.90;;;8.60;100.00;102369.31;4942175;28;20525;-83
2021/10/26 08:08:30;;;;;;;55.42;23.48;;;10.00;99.90;;;8.66;100.00;102449.81;4933232;28;20143;-82
2021/10/26 08:10:56;;;;;;;;;;;10.00;99.90;;;8.79;100.00;102513.53;4935506;28;20116;-82
2021/10/26 08:13:23;;;;;;;64.43;22.30;;;10.20;99.90;;;8.82;100.00;102511.75;4934856;28;19940;-83
2021/10/26 08:15:54;;;;;;;54.05;22.40;;;10.20;99.90;;;8.89;100.00;102553.75;4945013;28;20033;-82
2021/10/26 08:18:21;;;;;;;53.47;23.88;;;;;;;8.99;100.00;102586.91;4945225;28;20077;-82
2021/10/26 08:20:50;;;;;;;51.28;20.77;;;10.30;99.90;;;8.98;100.00;102603.56;4948505;28;20112;-83
2021/10/26 08:23:21;;;;;;;57.58;23.15;;;10.40;99.90;;;9.05;100.00;102573.72;4916088;28;20089;-82
2021/10/26 08:25:51;;;;;;;50.83;21.35;;;10.40;99.90;;;9.07;100.00;102605.22;4970202;28;20055;-83
2021/10/26 08:28:17;;;;;;;55.10;22.00;;;10.40;99.90;;;9.06;100.00;102612.25;4961892;28;20125;-83
2021/10/26 08:35:59;;;;;;;52.58;20.58;;;;;;;9.09;100.00;102496.56;4954294;28;20075;-82
2021/10/26 08:38:25;;;;;;;49.33;21.10;;;10.40;99.90;;;9.09;100.00;102466.78;4945867;28;20535;-83
2021/10/26 08:40:52;;;;;;;49.50;21.02;;;10.40;99.90;;;9.10;100.00;102466.78;4929237;28;20151;-82
2021/10/26 08:43:23;;;;;;;50.53;20.88;;;10.50;99.90;;;9.07;100.00;102460.69;4928409;28;20080;-83
2021/10/26 08:45:52;;;;;;;50.50;20.52;;;10.40;99.90;;;9.08;100.00;102455.41;4934377;28;20163;-83
2021/10/26 08:48:25;;;;;;;57.88;22.90;;;10.40;99.90;;;9.13;100.00;102455.34;4963801;28;20146;-83
2021/10/26 08:50:59;;;;;;;54.47;22.90;;;10.50;99.90;;;9.15;100.00;102456.22;5007407;28;20063;-83
2021/10/26 08:53:34;;;;;;;49.88;21.85;;;10.50;99.90;;;9.24;100.00;102483.25;4959041;28;20535;-83
2021/10/26 08:56:03;;;;;;;51.10;20.50;;;10.60;99.90;;;9.35;100.00;102458.56;4945696;28;20433;-82
2021/10/26 08:58:37;;;;;;;48.88;21.35;;;10.70;99.90;;;9.41;100.00;102454.09;4922947;28;20107;-82
2021/10/26 09:01:11;;;;;;;46.65;20.83;;;10.80;99.90;;;9.47;100.00;102444.38;4927742;28;20935;-83
2021/10/26 09:04:15;;;;;;;51.83;21.83;;;10.80;99.90;;;9.47;100.00;102445.25;4937243;28;20064;-83
2021/10/26 09:07:08;;;;;;;52.88;21.38;;;10.80;99.90;;;9.51;100.00;102438.19;4952341;28;20069;-82
2021/10/26 09:09:59;;;;;;;50.60;21.17;;;10.80;99.90;;;9.36;100.00;102408.59;4969495;28;20141;-81
2021/10/26 09:17:13;;;;;;;47.55;20.48;;;10.60;99.90;;;9.28;100.00;102410.47;4932378;28;20227;-82
2021/10/26 09:19:50;;;;;;;47.55;21.73;;;10.60;99.90;;;9.26;100.00;102404.34;4929196;28;20151;-81
2021/10/26 09:22:56;;;;;;;49.10;21.85;;;10.70;99.90;;;9.34;100.00;102420.03;4918516;28;20827;-82
2021/10/26 09:25:42;;;;;;;48.92;22.95;;;10.70;99.90;;;9.42;100.00;102421.66;4960209;28;20156;-81
2021/10/26 09:28:39;;;;;;;55.35;22.95;;;10.80;99.90;;;9.51;100.00;102423.28;4928453;28;20077;-81
2021/10/26 09:31:56;;;;;;;42.90;21.58;;;10.90;99.90;;;9.62;100.00;102431.88;4936780;28;20169;-81
2021/10/26 09:35:34;;;;;;;48.08;21.63;;;11.00;99.90;;;9.67;100.00;102416.00;4946562;28;20038;-82
2021/10/26 09:39:26;;;;;;;50.60;20.58;;;11.00;99.90;;;9.72;100.00;102419.47;4948544;28;20119;-82
2021/10/26 09:42:58;;;;;;;43.63;19.35;;;11.00;99.90;;;9.68;100.00;102396.72;4950639;28;20555;-81
2021/10/26 09:46:16;;;;;;;44.28;20.05;;;11.00;99.90;;;9.75;100.00;102400.13;4951736;28;20067;-81
2021/10/26 09:49:09;;;;;;;50.20;21.23;;;11.10;99.90;;;9.81;100.00;102392.13;4965578;28;20026;-81
2021/10/26 09:51:47;;;;;;;46.42;21.30;;;11.10;99.90;;;9.78;100.00;102392.16;4943246;28;20072;-81
2021/10/26 09:54:53;;;;;;;45.97;20.58;;;11.10;99.90;;;9.84;100.00;102384.16;4946624;28;20062;-81
2021/10/26 09:58:15;;;;;;;47.83;20.23;;;11.20;99.90;;;10.02;100.00;102399.66;4940033;28;20128;-81
2021/10/26 10:01:13;;;;;;;44.25;18.85;;;11.50;99.90;;;10.44;100.00;102422.63;4973409;28;20041;-81
2021/10/26 10:04:25;;;;;;;;;;;11.80;99.90;;;10.97;100.00;102467.22;4965939;28;20127;-81
2021/10/26 10:08:09;;;;;;;41.55;19.45;;;12.10;99.90;;;10.98;100.00;102421.53;4949954;28;19972;-80
2021/10/26 10:11:15;;;;;;;43.88;17.80;;;12.10;99.90;;;11.03;100.00;102454.78;4970785;28;20099;-81
2021/10/26 10:14:54;;;;;;;39.05;18.00;;;12.10;99.90;;;10.79;100.00;102400.84;4944759;28;20041;-80
2021/10/26 10:21:59;;;;;;;33.85;16.92;;;11.80;99.90;;;10.57;100.00;102413.56;4956509;28;20119;-81
2021/10/26 10:25:06;;;;;;;40.95;17.15;;;12.00;99.90;;;10.99;100.00;102428.53;4964476;28;20053;-81
2021/10/26 10:28:20;;;;;;;35.38;15.55;;;12.40;99.90;;;11.41;100.00;102439.06;4950780;28;20040;-80
2021/10/26 10:32:12;;;;;;;28.92;15.23;;;12.50;99.90;;;11.26;100.00;102382.25;4965239;28;20071;-81
2021/10/26 10:35:30;;;;;;;28.42;14.55;;;12.50;99.90;;;11.35;100.00;102383.81;4974448;28;20036;-81
2021/10/26 10:39:04;;;;;;;25.85;13.25;;;12.70;99.90;;;11.64;100.00;102394.53;4970033;28;20049;-81
2021/10/26 10:43:02;;;;;;;30.83;12.80;;;12.90;99.90;;;11.78;100.00;102393.31;4967610;28;20817;-81
2021/10/26 10:47:12;;;;;;;25.92;13.52;;;12.90;99.90;;;11.77;99.80;102378.38;4958918;28;20037;-81
2021/10/26 10:50:48;;;;;;;22.90;11.77;;;13.00;99.90;;;11.86;99.43;102386.94;4952162;28;21168;-81
2021/10/26 10:54:39;;;;;;;20.27;11.07;;;13.10;99.90;;;11.92;99.11;102379.78;4988170;28;20053;-81
2021/10/26 10:58:07;;;;;;;22.90;11.65;;;13.20;99.90;;;11.75;99.33;102348.53;4963134;28;20045;-81
2021/10/26 11:01:52;;;;;;;22.17;11.03;;;13.10;99.90;;;11.72;100.00;102332.78;4959876;28;20245;-81
2021/10/26 11:09:34;;;;;;;23.63;12.05;;;12.80;99.90;;;11.51;98.65;102242.72;4961911;28;20091;-81
2021/10/26 11:12:40;;;;;;;22.30;12.20;;;12.70;99.90;;;11.37;99.15;102227.25;4966635;28;20025;-81
2021/10/26 11:16:20;;;;;;;26.65;13.20;;;12.70;99.90;;;11.47;100.00;102241.94;4964278;28;20675;-81